Time;durP1;ratioP1;P1;durP2;ratioP2;P2;SDS_P1;SDS_P2;PMS_P1;PMS_P2;Temp;Humidity;BMP_temperature;BMP_pressure;BME280_temperature;BME280_humidity;BME280_pressure;Samples;Min_cycle;Max_cycle;Signal;HPM_P1;HPM_P2
2023/01/07 00:01:38;;;;;;;91.57;35.05;;;;;;;9.75;100.00;101430.72;4980052;28;20032;-90
2023/01/07 00:04:06;;;;;;;95.57;34.60;;;;;;;9.83;100.00;101435.31;4986394;28;20034;-90
2023/01/07 00:06:34;;;;;;;90.75;32.30;;;;;;;9.89;100.00;101453.47;5000578;28;20026;-91
2023/01/07 00:09:02;;;;;;;88.65;33.40;;;;;;;9.82;100.00;101438.47;4986375;28;20465;-90
2023/01/07 00:11:29;;;;;;;85.25;33.15;;;;;;;9.82;100.00;101430.06;5006221;28;20022;-90
2023/01/07 00:13:56;;;;;;;91.53;34.53;;;;;;;9.97;100.00;101443.25;4984982;28;20524;-90
2023/01/07 00:16:24;;;;;;;87.85;34.38;;;;;;;9.92;100.00;101435.94;4988682;28;20371;-90
2023/01/07 00:18:51;;;;;;;82.38;31.80;;;;;;;9.95;100.00;101443.63;5003243;28;20041;-89
2023/01/07 00:21:19;;;;;;;93.68;34.53;;;;;;;9.98;100.00;101426.13;5000712;28;20022;-90
2023/01/07 00:23:45;;;;;;;96.72;36.22;;;;;;;9.90;100.00;101415.91;4991278;28;20026;-91
2023/01/07 00:26:21;;;;;;;86.18;32.70;;;;;;;9.82;100.00;101414.09;5000064;28;20030;-90
2023/01/07 00:28:49;;;;;;;84.68;33.10;;;;;;;9.97;100.00;101432.06;4989181;28;20030;-89
2023/01/07 00:31:21;;;;;;;84.00;30.60;;;;;;;9.92;100.00;101416.38;4987728;28;20031;-90
2023/01/07 00:36:19;;;;;;;76.38;29.80;;;;;;;9.96;100.00;101427.66;4989876;28;20437;-90
2023/01/07 00:38:45;;;;;;;87.57;31.33;;;;;;;10.04;100.00;101428.66;4991027;28;20022;-89
2023/01/07 00:41:11;;;;;;;83.78;30.02;;;;;;;9.93;100.00;101401.22;4987830;28;20501;-89
2023/01/07 00:43:36;;;;;;;82.47;31.27;;;;;;;10.02;100.00;101425.41;4989837;28;20038;-90
2023/01/07 00:46:01;;;;;;;77.03;30.33;;;;;;;10.00;100.00;101419.38;4985413;28;20101;-90
2023/01/07 00:48:27;;;;;;;70.35;27.95;;;;;;;10.11;100.00;101426.03;4987129;28;20074;-90
2023/01/07 00:50:53;;;;;;;73.20;28.77;;;;;;;10.06;100.00;101412.34;5002920;28;20538;-90
2023/01/07 00:53:19;;;;;;;71.03;28.98;;;;;;;10.07;100.00;101416.75;4993348;28;20386;-90
2023/01/07 00:55:46;;;;;;;69.65;28.08;;;;;;;9.96;100.00;101422.06;4984527;28;20026;-90
2023/01/07 00:58:18;;;;;;;83.97;32.15;;;;;;;10.07;100.00;101413.94;4987323;28;20033;-90
2023/01/07 01:00:44;;;;;;;73.47;27.60;;;;;;;9.94;100.00;101407.63;4981601;28;20065;-90
2023/01/07 01:03:10;;;;;;;70.32;27.85;;;;;;;10.01;100.00;101420.97;4982083;28;20070;-89
2023/01/07 01:05:36;;;;;;;71.28;28.15;;;;;;;9.90;100.00;101390.75;4988952;28;20027;-90
2023/01/07 01:08:02;;;;;;;69.57;29.73;;;;;;;9.97;100.00;101407.72;4987761;28;20034;-90
2023/01/07 01:10:27;;;;;;;75.20;31.73;;;;;;;10.02;100.00;101403.03;4992376;28;20030;-91
2023/01/07 01:12:52;;;;;;;80.78;30.55;;;;;;;10.06;100.00;101401.94;4987685;28;20045;-90
2023/01/07 01:15:18;;;;;;;79.88;29.77;;;;;;;9.95;100.00;101386.88;4980684;28;20068;-90
2023/01/07 01:17:44;;;;;;;73.45;30.80;;;;;;;10.03;100.00;101401.84;4984576;28;20486;-90
2023/01/07 01:20:14;;;;;;;74.05;29.30;;;;;;;10.03;100.00;101407.44;4991020;28;20243;-89
2023/01/07 01:22:40;;;;;;;73.68;28.52;;;;;;;10.03;100.00;101399.06;4989220;28;20057;-89
2023/01/07 01:25:06;;;;;;;76.80;31.38;;;;;;;10.08;100.00;101407.19;4987416;28;20153;-89
2023/01/07 01:27:31;;;;;;;67.43;27.38;;;;;;;9.90;100.00;101385.16;5010084;28;20093;-90
2023/01/07 01:29:58;;;;;;;76.55;29.60;;;;;;;10.00;100.00;101400.59;4995708;28;20065;-90
2023/01/07 01:32:23;;;;;;;62.05;28.30;;;;;;;9.96;100.00;101392.09;4993476;28;20096;-89
2023/01/07 01:34:49;;;;;;;68.53;29.35;;;;;;;10.04;100.00;101393.09;4992320;28;20462;-90
2023/01/07 01:37:15;;;;;;;78.47;28.75;;;;;;;10.04;100.00;101397.91;4992242;28;20497;-89
2023/01/07 01:39:40;;;;;;;66.30;28.42;;;;;;;9.95;100.00;101384.06;4991607;28;20112;-90
2023/01/07 01:42:11;;;;;;;74.38;30.13;;;;;;;10.07;100.00;101402.75;4988176;28;20030;-90
2023/01/07 01:44:50;;;;;;;64.57;28.75;;;;;;;9.95;100.00;101389.66;4991665;28;20038;-90
2023/01/07 01:47:30;;;;;;;70.43;28.42;;;;;;;10.02;100.00;101405.84;4981553;28;20026;-90
2023/01/07 01:50:00;;;;;;;63.35;26.88;;;;;;;10.04;100.00;101404.28;5006340;28;20026;-90
2023/01/07 01:52:36;;;;;;;69.57;28.58;;;;;;;10.03;100.00;101396.25;4998018;28;20030;-91
2023/01/07 01:55:05;;;;;;;69.53;28.08;;;;;;;10.08;100.00;101399.59;4986065;28;20101;-89
2023/01/07 01:57:34;;;;;;;67.13;28.73;;;;;;;10.06;100.00;101406.75;4984476;28;20030;-90
2023/01/07 01:59:59;;;;;;;61.28;27.67;;;;;;;10.06;100.00;101403.94;4986309;28;20109;-89
2023/01/07 02:02:33;;;;;;;63.83;28.48;;;;;;;10.08;100.00;101405.19;4986045;28;20121;-90
2023/01/07 02:05:00;;;;;;;60.00;27.10;;;;;;;10.03;100.00;101397.06;4981107;28;20438;-90
2023/01/07 02:07:25;;;;;;;69.07;28.67;;;;;;;9.90;100.00;101382.38;4999365;28;20034;-90
2023/01/07 02:10:13;;;;;;;64.40;28.88;;;;;;;10.06;100.00;101406.75;4989320;28;20042;-89
2023/01/07 02:12:42;;;;;;;82.13;29.25;;;;;;;10.07;100.00;101408.34;5000815;28;20030;-90
2023/01/07 02:15:12;;;;;;;64.05;28.52;;;;;;;10.03;100.00;101407.44;4983507;28;20022;-90
2023/01/07 02:17:59;;;;;;;60.47;27.27;;;;;;;10.02;100.00;101405.84;4986146;28;20501;-90
2023/01/07 02:20:28;;;;;;;79.22;30.38;;;;;;;10.09;100.00;101401.22;4996552;28;20038;-90
2023/01/07 02:23:13;;;;;;;73.93;31.05;;;;;;;10.07;100.00;101397.16;4999666;28;20498;-90
2023/01/07 02:26:08;;;;;;;75.97;28.73;;;;;;;10.08;100.00;101401.59;4982625;28;20046;-89
2023/01/07 02:29:25;;;;;;;62.88;27.17;;;;;;;10.03;100.00;101397.06;4998473;28;20089;-89
2023/01/07 02:32:15;;;;;;;65.28;27.48;;;;;;;10.06;100.00;101392.75;4989610;28;20125;-90
2023/01/07 02:35:09;;;;;;;60.17;26.42;;;;;;;10.01;100.00;101382.63;4982897;28;20510;-90
2023/01/07 02:37:46;;;;;;;73.63;28.02;;;;;;;10.02;100.00;101389.06;4983525;28;20022;-89
2023/01/07 02:40:29;;;;;;;70.22;27.67;;;;;;;10.02;100.00;101383.47;4988762;28;20544;-89
2023/01/07 02:43:12;;;;;;;62.83;26.95;;;;;;;10.01;100.00;101376.22;4990361;28;20023;-91
2023/01/07 02:46:11;;;;;;;57.35;26.73;;;;;;;10.05;100.00;101383.53;4985724;28;20026;-90
2023/01/07 02:48:37;;;;;;;56.33;24.73;;;;;;;10.08;100.00;101388.41;4983520;28;20500;-90
2023/01/07 02:51:03;;;;;;;67.30;28.23;;;;;;;10.04;100.00;101367.13;4985685;28;20030;-91
2023/01/07 02:53:29;;;;;;;60.03;26.10;;;;;;;10.08;100.00;101382.81;4983578;28;20030;-89
2023/01/07 02:56:17;;;;;;;68.55;26.83;;;;;;;10.07;100.00;101383.19;4982038;28;20108;-89
2023/01/07 02:59:02;;;;;;;67.05;27.77;;;;;;;10.09;100.00;101376.03;4978614;28;20026;-90
2023/01/07 03:01:43;;;;;;;64.07;26.38;;;;;;;10.11;100.00;101370.91;4982098;28;20045;-89
2023/01/07 03:04:37;;;;;;;50.95;22.90;;;;;;;10.06;100.00;101365.59;4981345;28;20022;-90
2023/01/07 03:07:24;;;;;;;57.20;24.15;;;;;;;10.10;100.00;101371.28;4995814;28;20105;-90
2023/01/07 03:10:06;;;;;;;58.65;25.10;;;;;;;10.06;100.00;101360.00;4981822;28;20129;-90
2023/01/07 03:12:39;;;;;;;58.58;26.40;;;;;;;10.00;100.00;101352.25;5000124;28;20090;-89
2023/01/07 03:15:11;;;;;;;59.70;25.00;;;;;;;10.09;100.00;101356.47;4986901;28;20030;-89
2023/01/07 03:18:25;;;;;;;57.78;24.10;;;;;;;10.02;100.00;101345.13;4983848;28;20934;-90
2023/01/07 03:20:56;;;;;;;58.80;22.52;;;;;;;10.01;100.00;101362.25;4984595;28;20026;-90
2023/01/07 03:23:25;;;;;;;53.63;22.48;;;;;;;10.02;100.00;101361.09;5002769;28;20034;-89
2023/01/07 03:25:53;;;;;;;61.78;25.77;;;;;;;9.98;100.00;101350.59;4985027;28;20033;-90
2023/01/07 03:28:24;;;;;;;59.15;22.40;;;;;;;9.94;100.00;101349.72;4991402;28;20917;-93
2023/01/07 03:30:53;;;;;;;48.10;22.38;;;;;;;9.98;100.00;101344.22;5004113;28;20393;-92
2023/01/07 03:33:31;;;;;;;56.55;22.13;;;;;;;10.00;100.00;101352.25;5008558;28;20026;-91
2023/01/07 03:36:00;;;;;;;49.05;22.27;;;;;;;9.96;100.00;101336.19;4983378;28;20702;-93
2023/01/07 03:38:26;;;;;;;46.75;22.58;;;;;;;9.93;100.00;101336.91;4990822;28;20435;-93
2023/01/07 03:40:52;;;;;;;50.97;21.95;;;;;;;9.95;100.00;101334.56;4986902;28;20112;-92
2023/01/07 03:43:19;;;;;;;52.45;20.40;;;;;;;9.95;100.00;101333.75;4990507;28;20038;-88
2023/01/07 03:45:46;;;;;;;52.25;22.75;;;;;;;9.95;100.00;101333.75;5001241;28;20109;-90
2023/01/07 03:48:11;;;;;;;47.25;22.17;;;;;;;9.82;100.00;101313.47;4998986;28;20026;-90
2023/01/07 03:50:37;;;;;;;45.67;21.08;;;;;;;9.93;100.00;101328.53;5002919;28;20490;-90
2023/01/07 03:53:03;;;;;;;51.58;21.42;;;;;;;9.87;100.00;101321.59;4984924;28;20042;-90
2023/01/07 03:55:28;;;;;;;45.55;21.63;;;;;;;9.86;100.00;101322.75;4994982;28;20486;-90
2023/01/07 03:57:55;;;;;;;50.33;21.55;;;;;;;9.79;100.00;101308.59;4987208;28;20077;-91
2023/01/07 04:00:20;;;;;;;48.08;21.13;;;;;;;9.80;100.00;101309.41;5002513;28;20494;-90
2023/01/07 04:02:46;;;;;;;49.40;20.00;;;;;;;9.73;100.00;101293.28;4987822;28;20060;-90
2023/01/07 04:05:11;;;;;;;51.50;19.98;;;;;;;9.83;100.00;101314.28;4988535;28;20026;-90
2023/01/07 04:07:37;;;;;;;52.33;20.92;;;;;;;9.85;100.00;101323.13;4983247;28;20046;-92
2023/01/07 04:10:04;;;;;;;47.40;20.67;;;;;;;9.86;100.00;101324.75;4985002;28;20122;-91
2023/01/07 04:12:29;;;;;;;49.95;20.38;;;;;;;9.73;100.00;101298.88;5004883;28;20034;-91
2023/01/07 04:14:55;;;;;;;42.22;19.25;;;;;;;9.79;100.00;101313.38;4989709;28;20026;-90
2023/01/07 04:17:20;;;;;;;42.17;18.95;;;;;;;9.77;100.00;101305.34;4982540;28;20034;-90
2023/01/07 04:19:45;;;;;;;41.67;19.15;;;;;;;9.72;100.00;101302.84;4986982;28;20043;-90
2023/01/07 04:22:11;;;;;;;39.35;18.80;;;;;;;9.70;100.00;101300.41;4995741;28;20562;-91
2023/01/07 04:24:36;;;;;;;44.40;17.40;;;;;;;9.80;100.00;101298.22;4986302;28;20029;-89
2023/01/07 04:27:02;;;;;;;38.42;18.30;;;;;;;9.76;100.00;101295.34;4982592;28;20026;-90
2023/01/07 04:29:28;;;;;;;45.63;20.80;;;;;;;9.80;100.00;101304.63;4986007;28;20372;-90
2023/01/07 04:31:54;;;;;;;40.40;19.38;;;;;;;9.79;100.00;101291.84;4986626;28;20029;-91
2023/01/07 04:34:19;;;;;;;37.72;17.85;;;;;;;9.70;100.00;101275.25;4990733;28;20033;-89
2023/01/07 04:36:45;;;;;;;43.80;18.45;;;;;;;9.69;100.00;101275.59;4988718;28;20148;-90
2023/01/07 04:39:11;;;;;;;36.85;17.58;;;;;;;9.72;100.00;101281.28;4983146;28;20463;-91
2023/01/07 04:41:37;;;;;;;42.75;17.60;;;;;;;9.80;100.00;101281.44;4993489;28;20022;-91
2023/01/07 04:44:02;;;;;;;50.05;19.05;;;;;;;9.72;100.00;101269.31;4994362;28;20034;-91
2023/01/07 04:46:27;;;;;;;37.70;18.17;;;;;;;9.72;100.00;101274.91;4986647;28;20057;-91
2023/01/07 04:48:53;;;;;;;36.53;17.30;;;;;;;9.65;100.00;101255.13;4987558;28;20042;-91
2023/01/07 04:51:19;;;;;;;39.15;16.88;;;;;;;9.74;100.00;101278.16;4985062;28;20034;-90
2023/01/07 04:53:45;;;;;;;34.00;17.48;;;;;;;9.71;100.00;101270.47;4989446;28;20038;-92
2023/01/07 04:56:11;;;;;;;39.20;17.20;;;;;;;9.66;100.00;101256.78;4984028;28;20034;-91
2023/01/07 04:58:36;;;;;;;38.70;16.80;;;;;;;9.72;100.00;101269.31;4990604;28;20030;-90
2023/01/07 05:01:02;;;;;;;36.00;17.70;;;;;;;9.75;100.00;101268.56;4986650;28;20026;-88
2023/01/07 05:03:28;;;;;;;42.72;17.67;;;;;;;9.72;100.00;101260.91;5006425;28;20030;-89
2023/01/07 05:05:54;;;;;;;36.78;16.95;;;;;;;9.73;100.00;101265.31;4991421;28;20549;-91
2023/01/07 05:08:19;;;;;;;39.10;17.15;;;;;;;9.68;100.00;101258.03;4989135;28;20054;-91
2023/01/07 05:10:47;;;;;;;39.17;16.67;;;;;;;9.65;100.00;101255.13;4989619;28;20045;-91
2023/01/07 05:13:17;;;;;;;34.28;17.20;;;;;;;9.63;100.00;101243.50;5001351;28;20447;-91
2023/01/07 05:15:42;;;;;;;42.42;20.08;;;;;;;9.68;100.00;101260.03;4989376;28;20564;-90
2023/01/07 05:18:08;;;;;;;39.42;18.38;;;;;;;9.70;100.00;101266.06;4986069;28;20050;-90
2023/01/07 05:20:33;;;;;;;42.60;16.45;;;;;;;9.72;100.00;101263.72;4985549;28;20084;-90
2023/01/07 05:22:58;;;;;;;33.33;16.08;;;;;;;9.71;100.00;101253.69;4986574;28;20514;-91
2023/01/07 05:25:24;;;;;;;47.42;19.27;;;;;;;9.72;100.00;101263.72;4993247;28;20030;-91
2023/01/07 05:27:49;;;;;;;40.22;18.35;;;;;;;9.75;100.00;101263.78;4986015;28;20025;-91
2023/01/07 05:30:15;;;;;;;36.50;15.60;;;;;;;9.75;100.00;101260.19;4985786;28;20022;-91
2023/01/07 05:32:40;;;;;;;36.47;15.38;;;;;;;9.74;100.00;101255.78;4993471;28;20026;-93
2023/01/07 05:35:06;;;;;;;39.63;17.90;;;;;;;9.73;100.00;101254.13;4990635;28;20030;-91
2023/01/07 05:37:32;;;;;;;34.17;15.70;;;;;;;9.72;100.00;101249.75;4991292;28;20030;-91
2023/01/07 05:39:58;;;;;;;31.48;15.13;;;;;;;9.72;100.00;101258.13;4989888;28;20413;-90
2023/01/07 05:42:23;;;;;;;29.83;14.90;;;;;;;9.62;100.00;101241.91;4989351;28;20041;-90
2023/01/07 05:44:48;;;;;;;34.35;15.45;;;;;;;9.71;100.00;101245.31;4985354;28;20092;-90
2023/01/07 05:47:14;;;;;;;32.83;14.35;;;;;;;9.68;100.00;101248.84;4986686;28;20026;-91
2023/01/07 05:49:39;;;;;;;31.17;14.80;;;;;;;9.71;100.00;101239.72;4983396;28;20125;-91
2023/01/07 05:52:04;;;;;;;38.17;16.50;;;;;;;9.67;100.00;101238.81;4987307;28;20026;-91
2023/01/07 05:54:30;;;;;;;34.13;14.25;;;;;;;9.71;100.00;101245.31;4981615;28;20039;-91
2023/01/07 05:56:55;;;;;;;34.88;15.20;;;;;;;9.72;100.00;101244.16;4989099;28;20034;-91
2023/01/07 05:59:20;;;;;;;28.45;13.52;;;;;;;9.73;100.00;101254.13;4990944;28;20022;-91
2023/01/07 06:01:46;;;;;;;37.40;16.25;;;;;;;9.72;100.00;101233.78;4976166;28;20034;-92
2023/01/07 06:04:11;;;;;;;30.35;14.27;;;;;;;9.74;100.00;101233.41;4973074;28;20061;-93
2023/01/07 06:06:36;;;;;;;28.40;14.10;;;;;;;9.66;100.00;101220.44;4986935;28;20041;-89
2023/01/07 06:09:02;;;;;;;31.65;14.95;;;;;;;9.70;100.00;101230.53;4987643;28;20045;-92
2023/01/07 06:11:27;;;;;;;28.67;13.30;;;;;;;9.71;100.00;101228.53;4984857;28;20109;-92
2023/01/07 06:13:53;;;;;;;32.08;13.75;;;;;;;9.62;100.00;101211.16;4985152;28;20030;-92
2023/01/07 06:16:18;;;;;;;30.15;14.20;;;;;;;9.66;100.00;101223.25;4990822;28;20035;-92
2023/01/07 06:18:43;;;;;;;24.52;11.70;;;;;;;9.60;100.00;101224.69;4997904;28;20038;-91
2023/01/07 06:21:09;;;;;;;24.70;11.82;;;;;;;9.58;100.00;101213.88;4988505;28;20018;-91
2023/01/07 06:23:35;;;;;;;27.48;13.25;;;;;;;9.61;100.00;101217.91;4981669;28;20031;-92
2023/01/07 06:26:01;;;;;;;32.88;13.55;;;;;;;9.63;100.00;101219.16;4991049;28;20121;-91
2023/01/07 06:28:26;;;;;;;33.35;12.90;;;;;;;9.60;100.00;101205.94;4993183;28;20574;-92
2023/01/07 06:30:52;;;;;;;25.33;11.93;;;;;;;9.56;100.00;101210.63;4984092;28;20030;-91
2023/01/07 06:33:17;;;;;;;28.15;13.57;;;;;;;9.49;100.00;101183.31;4987148;28;20057;-92
2023/01/07 06:35:44;;;;;;;29.10;13.30;;;;;;;9.51;100.00;101202.53;4989123;28;20030;-92
2023/01/07 06:38:09;;;;;;;28.77;12.90;;;;;;;9.43;100.00;101179.19;4988839;28;20482;-92
2023/01/07 06:40:35;;;;;;;22.48;13.05;;;;;;;9.48;100.00;101201.25;4991031;28;20299;-91
2023/01/07 06:43:00;;;;;;;28.30;13.10;;;;;;;9.45;100.00;101199.19;4988470;28;20114;-91
2023/01/07 06:45:26;;;;;;;25.35;11.52;;;;;;;9.49;100.00;101190.91;4991188;28;20030;-94
2023/01/07 06:47:51;;;;;;;30.73;12.10;;;;;;;9.35;100.00;101164.22;4985184;28;20432;-90
2023/01/07 06:50:17;;;;;;;23.50;10.70;;;;;;;9.37;100.00;101161.06;4988363;28;20038;-89
2023/01/07 06:52:42;;;;;;;27.90;11.68;;;;;;;9.40;100.00;101173.50;4991691;28;20056;-91
2023/01/07 06:55:08;;;;;;;25.35;12.13;;;;;;;9.39;100.00;101178.28;4982431;28;20073;-91
2023/01/07 06:57:34;;;;;;;29.10;11.55;;;;;;;9.52;100.00;101179.78;4987960;28;20023;-91
2023/01/07 06:59:59;;;;;;;23.58;10.73;;;;;;;9.42;100.00;101168.38;4989083;28;20034;-91
2023/01/07 07:02:26;;;;;;;20.80;11.55;;;;;;;9.46;100.00;101180.44;4984446;28;20526;-90
2023/01/07 07:04:52;;;;;;;25.92;10.43;;;;;;;9.46;100.00;101172.06;4984767;28;20097;-92
2023/01/07 07:07:18;;;;;;;20.67;9.75;;;;;;;9.40;100.00;101154.75;4991356;28;20022;-93
2023/01/07 07:09:43;;;;;;;33.95;12.43;;;;;;;9.28;100.00;101144.50;5008988;28;20050;-92
2023/01/07 07:12:09;;;;;;;26.08;11.48;;;;;;;9.40;100.00;101160.34;4990263;28;20074;-93
2023/01/07 07:14:35;;;;;;;29.00;12.45;;;;;;;9.39;100.00;101155.94;5003247;28;20027;-93
2023/01/07 07:17:01;;;;;;;26.45;11.50;;;;;;;9.37;100.00;101158.28;4986718;28;20089;-92
2023/01/07 07:19:26;;;;;;;25.30;12.15;;;;;;;9.27;100.00;101131.69;4987816;28;20025;-93
2023/01/07 07:21:52;;;;;;;21.40;10.85;;;;;;;9.32;100.00;101144.59;4991835;28;20041;-92
2023/01/07 07:24:17;;;;;;;22.83;9.95;;;;;;;9.30;100.00;101133.78;4991658;28;20042;-93
2023/01/07 07:26:43;;;;;;;24.15;10.38;;;;;;;9.39;100.00;101138.38;4989618;28;20026;-92
2023/01/07 07:29:09;;;;;;;18.92;8.98;;;;;;;9.23;100.00;101125.22;4989843;28;20037;-93
2023/01/07 07:31:35;;;;;;;16.23;9.10;;;;;;;9.28;100.00;101143.72;5002970;28;20125;-94
2023/01/07 07:34:00;;;;;;;23.83;10.13;;;;;;;9.33;100.00;101143.41;4982618;28;20789;-92
2023/01/07 07:36:26;;;;;;;31.25;12.60;;;;;;;9.14;100.00;101121.81;4999867;28;20027;-92
2023/01/07 07:38:51;;;;;;;27.65;9.48;;;;;;;9.12;100.00;101122.16;5002768;28;20482;-92
2023/01/07 07:41:17;;;;;;;17.55;9.00;;;;;;;9.24;100.00;101123.25;4986457;28;20029;-92
2023/01/07 07:43:42;;;;;;;21.38;10.38;;;;;;;9.08;100.00;101107.31;4982870;28;20553;-93
2023/01/07 07:46:07;;;;;;;19.92;9.27;;;;;;;9.09;100.00;101120.13;4995756;28;20758;-90
2023/01/07 07:48:33;;;;;;;26.00;9.10;;;;;;;9.09;100.00;101111.75;4998696;28;20501;-91
2023/01/07 07:50:58;;;;;;;15.75;8.57;;;;;;;9.13;100.00;101115.44;4981036;28;20040;-91
2023/01/07 07:53:24;;;;;;;17.88;9.18;;;;;;;9.21;100.00;101121.16;4984489;28;20034;-91
2023/01/07 07:55:49;;;;;;;21.58;9.48;;;;;;;9.19;100.00;101126.31;4982232;28;20125;-91
2023/01/07 07:58:14;;;;;;;14.13;8.63;;;;;;;9.10;100.00;101116.13;4983381;28;20033;-92
2023/01/07 08:00:40;;;;;;;19.50;8.15;;;;;;;9.20;100.00;101122.38;4988180;28;20029;-92
2023/01/07 08:03:05;;;;;;;17.80;8.93;;;;;;;9.23;100.00;101102.06;4990583;28;20061;-92
2023/01/07 08:05:31;;;;;;;15.48;8.48;;;;;;;9.19;100.00;101092.78;4988009;28;20030;-91
2023/01/07 08:07:57;;;;;;;18.50;7.70;;;;;;;9.08;100.00;101090.56;5007040;28;20026;-93
2023/01/07 08:10:25;;;;;;;20.38;9.07;;;;;;;9.19;100.00;101124.31;4987689;28;20117;-92
2023/01/07 08:12:51;;;;;;;20.55;8.73;;;;;;;9.28;100.00;101116.56;4974404;28;20517;-92
2023/01/07 08:15:16;;;;;;;20.85;8.15;;;;;;;9.22;100.00;101122.81;4975006;28;20034;-90
2023/01/07 08:17:42;;;;;;;18.70;7.90;;;;;;;9.14;100.00;101111.44;4985531;28;20030;-93
2023/01/07 08:20:08;;;;;;;14.95;7.53;;;;;;;9.13;100.00;101115.44;4994488;28;20121;-91
2023/01/07 08:22:34;;;;;;;18.58;8.65;;;;;;;9.20;100.00;101113.97;4981401;28;20028;-92
2023/01/07 08:24:59;;;;;;;15.43;7.47;;;;;;;9.17;100.00;101121.09;4982318;28;20030;-91
2023/01/07 08:27:29;;;;;;;21.15;9.85;;;;;;;9.12;100.00;101108.22;4978423;28;20085;-90
2023/01/07 08:29:55;;;;;;;13.80;6.97;;;;;;;9.19;100.00;101113.16;4978166;28;20030;-92
2023/01/07 08:32:20;;;;;;;15.52;6.75;;;;;;;9.11;100.00;101116.97;4979516;28;20054;-92
2023/01/07 08:34:46;;;;;;;19.85;7.63;;;;;;;9.21;100.00;101121.16;4986001;28;20149;-93
2023/01/07 08:37:12;;;;;;;18.98;7.25;;;;;;;9.23;100.00;101113.25;4985909;28;20042;-92
2023/01/07 08:39:37;;;;;;;25.35;8.63;;;;;;;9.28;100.00;101104.59;4990098;28;20385;-93
2023/01/07 08:42:03;;;;;;;15.98;6.72;;;;;;;9.26;100.00;101112.53;4995170;28;20129;-91
2023/01/07 08:44:33;;;;;;;18.83;7.18;;;;;;;9.21;100.00;101110.00;4992609;28;20068;-91
2023/01/07 08:46:58;;;;;;;20.27;7.38;;;;;;;9.16;100.00;101094.34;5005913;28;20030;-92
2023/01/07 08:49:24;;;;;;;15.90;7.20;;;;;;;9.20;100.00;101092.44;4986759;28;20391;-92
2023/01/07 08:51:49;;;;;;;13.27;7.10;;;;;;;8.97;100.00;101064.38;4994682;28;20118;-91
2023/01/07 08:54:15;;;;;;;26.92;7.53;;;;;;;9.18;100.00;101100.38;4986997;28;20026;-92
2023/01/07 08:56:40;;;;;;;14.73;6.35;;;;;;;9.19;100.00;101092.78;4990362;28;20026;-89
2023/01/07 08:59:05;;;;;;;19.30;7.53;;;;;;;9.19;100.00;101078.84;4986811;28;20045;-90
2023/01/07 09:01:31;;;;;;;14.88;6.90;;;;;;;9.24;100.00;101086.94;4997572;28;20014;-93
2023/01/07 09:03:56;;;;;;;11.90;6.68;;;;;;;9.16;100.00;101075.59;4989286;28;20045;-92
2023/01/07 09:06:22;;;;;;;16.15;7.32;;;;;;;9.20;100.00;101086.06;4986630;28;20181;-91
2023/01/07 09:08:48;;;;;;;11.18;5.80;;;;;;;9.23;100.00;101071.34;4990841;28;20047;-92
2023/01/07 09:11:14;;;;;;;14.07;7.20;;;;;;;9.31;100.00;101075.91;4993705;28;20038;-87
2023/01/07 09:13:39;;;;;;;13.38;6.68;;;;;;;9.26;100.00;101070.63;4999658;28;20030;-87
2023/01/07 09:16:05;;;;;;;17.20;7.32;;;;;;;9.35;100.00;101072.03;4985960;28;20061;-87
2023/01/07 09:18:30;;;;;;;17.45;5.95;;;;;;;9.31;100.00;101064.75;4978458;28;20057;-86
2023/01/07 09:20:55;;;;;;;13.02;6.95;;;;;;;9.36;100.00;101072.88;4979029;28;20061;-86
2023/01/07 09:23:21;;;;;;;14.60;6.00;;;;;;;9.37;100.00;101060.50;4989658;28;20476;-86
2023/01/07 09:25:46;;;;;;;14.40;6.38;;;;;;;9.43;100.00;101072.22;5000176;28;20064;-86
2023/01/07 09:28:12;;;;;;;11.45;5.38;;;;;;;9.45;100.00;101067.88;4993161;28;20065;-86
2023/01/07 09:30:37;;;;;;;15.63;6.57;;;;;;;9.48;100.00;101064.31;4998457;28;20034;-87
2023/01/07 09:33:03;;;;;;;14.38;6.32;;;;;;;9.53;100.00;101066.84;4997492;28;20553;-86
2023/01/07 09:35:28;;;;;;;12.05;5.70;;;;;;;9.49;100.00;101060.38;4993354;28;20038;-86
2023/01/07 09:37:54;;;;;;;16.13;5.25;;;;;;;9.59;100.00;101063.75;4989180;28;20038;-86
2023/01/07 09:40:22;;;;;;;10.90;5.53;;;;;;;9.61;100.00;101055.81;4989922;28;20026;-86
2023/01/07 09:42:58;;;;;;;12.57;5.47;;;;;;;9.61;100.00;101062.19;4989459;28;20026;-86
2023/01/07 09:45:35;;;;;;;9.77;5.53;;;;;;;9.57;100.00;101050.97;4999581;28;20058;-86
2023/01/07 09:48:08;;;;;;;8.63;5.50;;;;;;;9.67;100.00;101062.72;4984460;28;20560;-86
2023/01/07 09:50:52;;;;;;;11.68;5.07;;;;;;;9.72;100.00;101062.44;4980887;28;20034;-84
2023/01/07 09:53:26;;;;;;;14.95;6.13;;;;;;;9.76;100.00;101052.13;5002477;28;20033;-83
2023/01/07 09:55:53;;;;;;;12.85;6.00;;;;;;;9.80;100.00;101060.59;4988683;28;20030;-84
2023/01/07 09:58:20;;;;;;;13.23;5.80;;;;;;;9.82;100.00;101061.84;4998952;28;20039;-84
2023/01/07 10:00:53;;;;;;;11.27;5.50;;;;;;;9.91;100.00;101044.88;4988541;28;20089;-81
2023/01/07 10:03:35;;;;;;;;;;;;;;;9.91;100.00;101056.84;5003794;28;20026;-83
2023/01/07 10:06:13;;;;;;;13.00;5.40;;;;;;;9.86;100.00;101040.34;4989304;28;19913;-84
2023/01/07 10:09:00;;;;;;;14.57;5.07;;;;;;;9.98;100.00;101045.00;4988559;28;20054;-84
2023/01/07 10:11:44;;;;;;;12.60;5.88;;;;;;;9.97;100.00;101052.59;4988718;28;20022;-84
2023/01/07 10:14:42;;;;;;;9.68;4.22;;;;;;;10.00;100.00;101045.44;4987641;28;20125;-84
2023/01/07 10:17:34;;;;;;;12.27;5.93;;;;;;;10.86;100.00;101035.78;4976095;28;20046;-83
2023/01/07 10:20:33;;;;;;;12.98;5.43;;;;;;;10.24;100.00;101037.88;4999945;28;20104;-86
2023/01/07 10:23:22;;;;;;;9.27;4.85;;;;;;;10.15;100.00;101024.13;4992336;28;20033;-86
2023/01/07 10:25:52;;;;;;;12.57;5.00;;;;;;;10.10;100.00;101016.88;4989914;28;20430;-87
2023/01/07 10:28:33;;;;;;;12.27;5.38;;;;;;;10.21;100.00;101021.84;4988616;28;20053;-86
2023/01/07 10:30:59;;;;;;;10.90;4.53;;;;;;;10.13;100.00;101018.09;5005832;28;20061;-85
2023/01/07 10:33:31;;;;;;;11.25;4.90;;;;;;;10.13;100.00;101018.09;4992006;28;20030;-91
2023/01/07 10:36:16;;;;;;;8.07;4.30;;;;;;;10.17;100.00;101008.59;4988319;28;20038;-92
2023/01/07 10:38:49;;;;;;;9.63;5.07;;;;;;;10.24;100.00;100993.91;4984756;28;20052;-86
2023/01/07 10:41:35;;;;;;;9.23;4.10;;;;;;;10.11;100.00;100989.69;5001838;28;20450;-88
2023/01/07 10:44:24;;;;;;;7.47;4.38;;;;;;;10.17;100.00;100993.81;4987183;28;20038;-87
2023/01/07 10:46:53;;;;;;;9.95;4.60;;;;;;;10.14;100.00;100988.94;5000433;28;20025;-86
2023/01/07 10:49:24;;;;;;;11.32;4.68;;;;;;;10.11;100.00;100986.91;4989688;28;20041;-87
2023/01/07 10:52:11;;;;;;;14.45;5.15;;;;;;;10.10;100.00;100977.72;4997009;28;20382;-86
2023/01/07 10:54:49;;;;;;;8.73;4.80;;;;;;;10.16;100.00;100978.19;5007150;28;20387;-87
2023/01/07 10:57:19;;;;;;;10.27;4.28;;;;;;;10.19;100.00;100963.47;4999820;28;20046;-86
2023/01/07 10:59:49;;;;;;;9.95;4.38;;;;;;;10.19;100.00;100955.06;4987069;28;20036;-87
2023/01/07 11:02:19;;;;;;;12.73;6.15;;;;;;;10.18;100.00;100950.66;5003366;28;20518;-87
2023/01/07 11:04:44;;;;;;;12.57;4.22;;;;;;;10.21;100.00;100938.72;4987813;28;20026;-88
2023/01/07 11:07:39;;;;;;;8.52;6.07;;;;;;;10.22;100.00;100942.31;4986726;28;20434;-87
2023/01/07 11:10:06;;;;;;;9.75;5.25;;;;;;;10.21;100.00;100935.94;4990642;28;20134;-88
2023/01/07 11:12:37;;;;;;;11.77;5.40;;;;;;;10.25;100.00;100934.00;4989024;28;20478;-88
2023/01/07 11:15:22;;;;;;;7.55;5.45;;;;;;;10.29;100.00;100926.50;4987825;28;20026;-87
2023/01/07 11:17:55;;;;;;;9.65;4.50;;;;;;;10.23;100.00;100921.56;4997599;28;20504;-87
2023/01/07 11:20:43;;;;;;;12.00;5.00;;;;;;;10.30;100.00;100916.13;4993203;28;20278;-87
2023/01/07 11:23:40;;;;;;;14.65;5.07;;;;;;;10.29;100.00;100912.53;4987219;28;20046;-87